Time;durP1;ratioP1;P1;durP2;ratioP2;P2;SDS_P1;SDS_P2;PMS_P1;PMS_P2;Temp;Humidity;BMP_temperature;BMP_pressure;BME280_temperature;BME280_humidity;BME280_pressure;Samples;Min_cycle;Max_cycle;Signal;HPM_P1;HPM_P2
2022/11/10 00:01:50;;;;;;;;;;;;;;;6.31;100.00;100013.31;5027135;28;19928;-82
2022/11/10 00:04:15;;;;;;;;;;;;;;;6.35;100.00;100025.53;5026350;28;19922;-82
2022/11/10 00:06:40;;;;;;;;;;;;;;;6.23;100.00;100015.25;5028138;28;20387;-82
2022/11/10 00:09:06;;;;;;;;;;;;;;;6.19;100.00;100026.75;5022427;28;19921;-83
2022/11/10 03:21:56;;;;;;;;;;;;;;;6.12;100.00;100204.06;5240432;23;20402;-82
2022/11/10 03:24:21;;;;;;;;;;;;;;;6.14;100.00;100224.19;4995177;28;19921;-82
2022/11/10 03:26:46;;;;;;;;;;;;;;;6.11;100.00;100221.63;5012900;28;20000;-83
2022/11/10 03:29:12;;;;;;;;;;;;;;;6.07;100.00;100222.56;5013509;28;19926;-82
2022/11/10 03:31:37;;;;;;;;;;;;;;;6.01;100.00;100225.28;5016255;28;20009;-82
2022/11/10 03:34:02;;;;;;;;;;;;;;;6.08;100.00;100224.28;5016286;28;19917;-83
2022/11/10 03:36:27;;;;;;;;;;;;;;;6.10;100.00;100219.00;5014812;28;19921;-82
2022/11/10 03:38:53;;;;;;;;;;;;;;;6.00;100.00;100221.78;4998704;28;20368;-82
2022/11/10 03:41:18;;;;;;;;;;;;;;;5.87;100.00;100228.13;5016031;28;19917;-82
2022/11/10 03:43:43;;;;;;;;;;;;;;;5.85;100.00;100235.16;5016082;28;20411;-84
2022/11/10 03:46:09;;;;;;;;;;;;;;;5.87;100.00;100241.28;5015995;28;20007;-83
2022/11/10 03:48:34;;;;;;;;;;;;;;;5.87;100.00;100243.91;5015952;28;19917;-83
2022/11/10 03:50:59;;;;;;;;;;;;;;;5.87;100.00;100256.16;5014665;28;20357;-83
2022/11/10 03:53:25;;;;;;;;;;;;;;;5.91;100.00;100258.72;5015822;28;20316;-84
2022/11/10 03:55:50;;;;;;;;;;;;;;;5.91;100.00;100255.25;5014723;28;20008;-84
2022/11/10 03:58:15;;;;;;;;;;;;;;;5.85;100.00;100261.47;5015379;28;19917;-84
2022/11/10 04:00:40;;;;;;;;;;;;;;;6.40;100.00;100259.69;5015561;28;19952;-81
2022/11/10 04:03:06;;;;;;;;;;;;;;;6.82;100.00;100253.63;5015720;28;20025;-83
2022/11/10 04:10:59;;;;;;;;;;;;;;;7.44;100.00;100269.88;5015792;28;20308;-83
2022/11/10 04:16:08;;;;;;;;;;;;;;;7.65;100.00;100280.84;5015751;28;20458;-84
2022/11/10 04:18:34;;;;;;;;;;;;;;;7.72;100.00;100271.03;5015471;28;19988;-83
2022/11/10 04:21:00;;;;;;;;;;;;;;;7.79;100.00;100284.03;5013992;28;20284;-84
2022/11/10 04:23:27;;;;;;;;;;;;;;;7.84;100.00;100283.94;5015088;28;20012;-83
2022/11/10 04:28:40;;;;;;;;;;;;;;;7.96;100.00;100285.41;5015251;28;19924;-83
2022/11/10 04:31:06;;;;;;;;;;;;;;;8.00;100.00;100287.06;5015196;28;19918;-83
2022/11/10 04:33:32;;;;;;;;;;;;;;;8.06;100.00;100279.00;4997338;28;19918;-83
2022/11/10 04:35:57;;;;;;;;;;;;;;;8.10;100.00;100288.56;5013681;28;20295;-83
2022/11/10 04:38:22;;;;;;;;;;;;;;;8.13;100.00;100298.19;5015004;28;19918;-83
2022/11/10 04:40:47;;;;;;;;;;;;;;;8.19;100.00;100301.53;5014514;28;20392;-84
2022/11/10 04:43:13;;;;;;;;;;;;;;;8.22;100.00;100310.28;5014880;28;19924;-83
2022/11/10 04:45:38;;;;;;;;;;;;;;;8.26;100.00;100312.81;5014787;28;19944;-83
2022/11/10 04:48:03;;;;;;;;;;;;;;;8.30;100.00;100322.41;4997575;28;19951;-83
2022/11/10 04:50:28;;;;;;;;;;;;;;;8.32;100.00;100330.28;5013419;28;19918;-83
2022/11/10 04:52:54;;;;;;;;;;;;;;;8.37;100.00;100338.94;5014605;28;20364;-83
2022/11/10 04:55:19;;;;;;;;;;;;;;;8.41;100.00;100339.72;4997224;28;19971;-83
2022/11/10 04:57:44;;;;;;;;;;;;;;;8.42;100.00;100334.41;5014693;28;19918;-84
2022/11/10 05:00:10;;;;;;;;;;;;;;;8.44;100.00;100331.78;5014637;28;19962;-83
2022/11/10 08:37:36;;;;;;;;;;;;;;;8.90;100.00;100639.78;5272700;23;20302;-90
2022/11/10 08:40:03;;;;;;;;;;;;;;;8.32;100.00;100649.78;5054850;28;19920;-88
2022/11/10 08:42:28;;;;;;;;;;;;;;;7.59;100.00;100650.22;5053501;28;19983;-90
2022/11/10 08:44:53;;;;;;;;;;;;;;;7.41;100.00;100662.81;5048458;28;20366;-90
2022/11/10 08:47:19;;;;;;;;;;;;;;;7.25;100.00;100666.59;5066001;28;19936;-90
2022/11/10 08:49:44;;;;;;;;;;;;;;;7.33;100.00;100679.66;5050985;28;20283;-90
2022/11/10 08:52:10;;;;;;;;;;;;;;;7.22;100.00;100678.03;5053155;28;19920;-91
2022/11/10 08:54:35;;;;;;;;;;;;;;;7.20;100.00;100692.16;5054392;28;20003;-89
2022/11/10 08:57:00;;;;;;;;;;;;;;;7.00;100.00;100701.19;5053293;28;19924;-89
2022/11/10 08:59:25;;;;;;;;;;;;;;;6.91;100.00;100706.63;5054854;28;20268;-91
2022/11/10 09:01:51;;;;;;;;;;;;;;;6.77;100.00;100701.50;5054321;28;19920;-91
2022/11/10 09:04:19;;;;;;;;;;;;;;;6.66;100.00;100706.91;5054246;28;19964;-93
2022/11/10 09:06:44;;;;;;;;;;;;;;;6.52;100.00;100720.22;5068606;28;20027;-89
2022/11/10 09:09:09;;;;;;;;;;;;;;;6.51;100.00;100720.25;5054155;28;19959;-88
2022/11/10 09:11:34;;;;;;;;;;;;;;;6.39;100.00;100728.28;5054262;28;19917;-89
2022/11/10 09:14:00;;;;;;;;;;;;;;;6.50;100.00;100735.19;5053942;28;19917;-86
2022/11/10 09:16:25;;;;;;;;;;;;;;;6.45;100.00;100730.88;5069447;28;19917;-85
2022/11/10 09:18:50;;;;;;;;;;;;;;;6.43;100.00;100735.25;5054064;28;19920;-87
2022/11/10 09:21:15;;;;;;;;;;;;;;;6.36;100.00;100737.09;5052572;28;19943;-88
2022/11/10 09:23:41;;;;;;;;;;;;;;;6.35;100.00;100738.84;5053919;28;19931;-85
2022/11/10 09:26:06;;;;;;;;;;;;;;;6.38;100.00;100734.44;5053771;28;19917;-86
2022/11/10 09:28:31;;;;;;;;;;;;;;;6.45;100.00;100736.13;5053942;28;20418;-85
2022/11/10 09:31:09;;;;;;;;;;;;;;;6.57;100.00;100735.09;5053878;28;19924;-90
2022/11/10 09:34:09;;;;;;;;;;;;;;;6.47;100.00;100736.97;5069602;28;20283;-90
2022/11/10 09:36:43;;;;;;;;;;;;;;;6.27;100.00;100738.06;5040361;28;19924;-94
2022/11/10 09:39:08;;;;;;;;;;;;;;;6.20;100.00;100738.13;5053613;28;19959;-86
2022/11/10 09:41:38;;;;;;;;;;;;;;;6.19;100.00;100734.66;5053876;28;19925;-85
2022/11/10 09:44:15;;;;;;;;;;;;;;;6.05;100.00;100739.13;5053497;28;19924;-85
2022/11/10 09:46:42;;;;;;;;;;;;;;;6.08;100.00;100741.72;5053752;28;20390;-86
2022/11/10 09:49:17;;;;;;;;;;;;;;;5.98;100.00;100748.84;5053434;28;19917;-86
2022/11/10 09:51:43;;;;;;;;;;;;;;;5.96;100.00;100748.84;5052043;28;19947;-86
2022/11/10 09:54:23;;;;;;;;;;;;;;;5.96;100.00;100753.22;5053266;28;19917;-86
2022/11/10 09:56:55;;;;;;;;;;;;;;;5.94;100.00;100750.59;5067963;28;21325;-90
2022/11/10 09:59:24;;;;;;;;;;;;;;;5.96;100.00;100755.84;5068782;28;20382;-90
2022/11/10 10:02:01;;;;;;;;;;;;;;;5.98;100.00;100762.00;5053420;28;19917;-87
2022/11/10 10:04:27;;;;;;;;;;;;;;;6.00;100.00;100763.75;5052093;28;19939;-86
2022/11/10 10:06:56;;;;;;;;;;;;;;;5.91;100.00;100766.41;5051879;28;20375;-87
2022/11/10 10:09:37;;;;;;;;;;;;;;;5.93;100.00;100769.88;5053287;28;19924;-85
2022/11/10 10:12:24;;;;;;;;;;;;;;;5.89;100.00;100772.56;5053679;28;19917;-89
2022/11/10 10:14:51;;;;;;;;;;;;;;;6.48;100.00;100772.97;5068604;28;20288;-86
2022/11/10 10:17:41;;;;;;;;;;;;;;;6.88;100.00;100770.75;5068683;28;19921;-90
2022/11/10 10:20:30;;;;;;;;;;;;;;;7.20;100.00;100764.19;5053178;28;19921;-86
2022/11/10 10:23:18;;;;;;;;;;;;;;;7.38;100.00;100770.97;5048712;28;19982;-87
2022/11/10 10:25:44;;;;;;;;;;;;;;;7.55;100.00;100775.16;5032889;28;19917;-90
2022/11/10 10:31:17;;;;;;;;;;;;;;;7.79;100.00;100773.91;5052878;28;20393;-89
2022/11/10 10:33:43;;;;;;;;;;;;;;;7.86;100.00;100786.09;5053860;28;20306;-88
2022/11/10 10:36:15;;;;;;;;;;;;;;;7.92;100.00;100786.00;5067485;28;19917;-86
2022/11/10 10:38:42;;;;;;;;;;;;;;;7.96;100.00;100785.06;5055198;28;19982;-89
2022/11/10 10:41:34;;;;;;;;;;;;;;;8.02;100.00;100784.06;5057602;28;20313;-93
2022/11/10 10:44:00;;;;;;;;;;;;;;;8.05;100.00;100781.38;5055646;28;19971;-91
2022/11/10 10:46:30;;;;;;;;;;;;;;;8.11;100.00;100781.28;5057014;28;19975;-94
2022/11/10 10:49:11;;;;;;;;;;;;;;;8.17;100.00;100770.63;5072532;28;20430;-88
2022/11/10 10:51:36;;;;;;;;;;;;;;;8.21;100.00;100776.72;5055654;28;19917;-88
2022/11/10 10:54:01;;;;;;;;;;;;;;;8.25;100.00;100777.53;5056520;28;20283;-91
2022/11/10 10:56:31;;;;;;;;;;;;;;;8.30;100.00;100770.41;5072060;28;20092;-91
2022/11/10 10:59:00;;;;;;;;;;;;;;;8.31;100.00;100762.47;5056917;28;19917;-90
2022/11/10 11:01:46;;;;;;;;;;;;;;;8.35;100.00;100772.06;5056608;28;19920;-92
2022/11/10 11:04:30;;;;;;;;;;;;;;;8.40;100.00;100777.25;5054800;28;19963;-90
2022/11/10 11:06:57;;;;;;;;;;;;;;;8.43;100.00;100776.34;5055480;28;19921;-88
2022/11/10 11:09:23;;;;;;;;;;;;;;;8.46;100.00;100766.63;5072108;28;19920;-89
2022/11/10 11:14:24;;;;;;;;;;;;;;;8.54;100.00;100755.91;5004519;23;19926;-89
2022/11/10 11:19:54;;;;;;;;;;;;;;;8.60;100.00;100761.09;4996981;28;19924;-89
2022/11/10 11:22:45;;;;;;;;;;;;;;;8.62;100.00;100772.50;4978259;28;19935;-89
2022/11/10 11:25:31;;;;;;;;;;;;;;;8.64;100.00;100786.53;4980291;28;19922;-89
2022/11/10 11:28:15;;;;;;;;;;;;;;;8.69;100.00;100789.09;4997055;28;20258;-91
2022/11/10 11:30:50;;;;;;;;;;;;;;;8.69;100.00;100791.72;4979732;28;19918;-92
2022/11/10 11:33:29;;;;;;;;;;;;;;;8.72;100.00;100807.53;4996878;28;20341;-92
2022/11/10 11:36:02;;;;;;;;;;;;;;;8.73;100.00;100806.63;4996025;28;19964;-89
2022/11/10 11:38:32;;;;;;;;;;;;;;;8.73;100.00;100801.34;4979620;28;19918;-89
2022/11/10 11:41:03;;;;;;;;;;;;;;;8.77;100.00;100803.03;4996953;28;20296;-92
2022/11/10 11:43:28;;;;;;;;;;;;;;;8.79;100.00;100795.97;4979317;28;19991;-91
2022/11/10 11:46:12;;;;;;;;;;;;;;;8.81;100.00;100799.44;4996786;28;20315;-88
2022/11/10 11:48:37;;;;;;;;;;;;;;;8.82;100.00;100806.47;4996804;28;19929;-94
2022/11/10 11:51:04;;;;;;;;;;;;;;;8.86;100.00;100807.28;4994373;28;20074;-90
2022/11/10 11:53:38;;;;;;;;;;;;;;;8.87;100.00;100801.06;4996799;28;19921;-89
2022/11/10 11:56:15;;;;;;;;;;;;;;;8.86;100.00;100792.28;4979016;28;19925;-88
2022/11/10 11:58:44;;;;;;;;;;;;;;;8.89;100.00;100792.22;4996693;28;19982;-91
2022/11/10 12:01:31;;;;;;;;;;;;;;;8.90;100.00;100783.41;4979274;28;19964;-88
2022/11/10 12:04:15;;;;;;;;;;;;;;;8.95;100.00;100795.63;4996936;28;19925;-91
2022/11/10 12:06:49;;;;;;;;;;;;;;;8.95;100.00;100796.53;4996085;28;19925;-89
2022/11/10 12:09:30;;;;;;;;;;;;;;;8.98;100.00;100796.44;4997123;28;19925;-90
2022/11/10 12:12:09;;;;;;;;;;;;;;;8.77;100.00;100800.38;4978927;28;19922;-92
2022/11/10 12:14:52;;;;;;;;;;;;;;;7.81;100.00;100809.03;4956589;29;19926;-88
2022/11/10 12:17:36;;;;;;;;;;;;;;;7.63;100.00;100804.91;4957748;29;20349;-92
2022/11/10 12:20:19;;;;;;;;;;;;;;;7.45;100.00;100812.19;4957523;29;19977;-90
2022/11/10 12:22:53;;;;;;;;;;;;;;;7.18;100.00;100802.00;4956636;29;19926;-91
2022/11/10 12:25:24;;;;;;;;;;;;;;;7.14;100.00;100805.56;4957498;29;19926;-88
2022/11/10 12:27:53;;;;;;;;;;;;;;;7.15;100.00;100804.66;4957718;29;19929;-89
2022/11/10 12:30:18;;;;;;;;;;;;;;;6.96;100.00;100809.31;4957176;29;19925;-90
2022/11/10 12:33:22;;;;;;;;;;;;;;;6.94;100.00;100811.06;4958423;29;19919;-94
2022/11/10 12:35:47;;;;;;;;;;;;;;;6.91;100.00;100819.91;4953895;29;19919;-90
2022/11/10 12:38:19;;;;;;;;;;;;;;;6.83;100.00;100811.19;4956533;29;19918;-94
2022/11/10 12:41:02;;;;;;;;;;;;;;;6.75;100.00;100813.03;4957543;29;20012;-92
2022/11/10 12:43:31;;;;;;;;;;;;;;;6.62;100.00;100815.81;4956494;29;20386;-94
2022/11/10 12:45:58;;;;;;;;;;;;;;;6.63;100.00;100814.91;4957402;29;20285;-90
2022/11/10 12:48:26;;;;;;;;;;;;;;;6.60;100.00;100824.63;4955800;29;19919;-94
2022/11/10 12:50:59;;;;;;;;;;;;;;;6.54;100.00;100821.16;4955983;29;19925;-89
2022/11/10 12:53:26;;;;;;;;;;;;;;;6.35;100.00;100832.72;4956569;29;19923;-90
2022/11/10 12:55:55;;;;;;;;;;;;;;;6.38;100.00;100830.06;4957117;29;19941;-94
2022/11/10 12:58:20;;;;;;;;;;;;;;;6.43;100.00;100843.19;4956705;29;19919;-92
2022/11/10 13:01:12;;;;;;;;;;;;;;;6.27;100.00;100837.19;4963554;28;19946;-90
2022/11/10 13:03:39;;;;;;;;;;;;;;;6.38;100.00;100847.63;4954810;28;19918;-95
2022/11/10 13:06:06;;;;;;;;;;;;;;;6.41;100.00;100847.63;4955209;29;19927;-91
2022/11/10 13:08:40;;;;;;;;;;;;;;;6.39;100.00;100849.41;4956469;29;19923;-91
2022/11/10 13:11:34;;;;;;;;;;;;;;;6.27;100.00;100852.97;4955153;29;19918;-92
2022/11/10 13:14:25;;;;;;;;;;;;;;;6.25;100.00;100853.00;4988597;28;19933;-88
2022/11/10 13:16:52;;;;;;;;;;;;;;;6.21;100.00;100851.28;4946460;28;19917;-91
2022/11/10 13:19:24;;;;;;;;;;;;;;;6.16;100.00;100861.00;4994860;28;20431;-90
2022/11/10 13:21:49;;;;;;;;;;;;;;;6.16;100.00;100859.22;4976085;28;19918;-90
2022/11/10 13:24:53;;;;;;;;;;;;;;;6.07;100.00;100851.38;4977419;28;20308;-93
2022/11/10 13:27:40;;;;;;;;;;;;;;;6.15;100.00;100848.72;4934844;29;19919;-92
2022/11/10 13:30:06;;;;;;;;;;;;;;;6.09;100.00;100843.47;4934845;29;20013;-91
2022/11/10 13:32:32;;;;;;;;;;;;;;;6.49;100.00;100848.41;4970361;28;19918;-88
2022/11/10 13:35:19;;;;;;;;;;;;;;;6.94;100.00;100855.88;4994158;28;19976;-92
2022/11/10 13:37:49;;;;;;;;;;;;;;;7.25;100.00;100856.41;4993137;28;19922;-87
2022/11/10 13:40:17;;;;;;;;;;;;;;;7.41;100.00;100851.81;4994464;28;19936;-91
2022/11/10 13:42:43;;;;;;;;;;;;;;;7.56;100.00;100853.34;4994663;28;19917;-91
2022/11/10 13:45:37;;;;;;;;;;;;;;;7.64;100.00;100849.75;4994698;28;19968;-92
2022/11/10 13:48:14;;;;;;;;;;;;;;;7.76;100.00;100853.09;4994558;28;20353;-89
2022/11/10 13:50:58;;;;;;;;;;;;;;;7.87;100.00;100853.81;4975656;28;19918;-88
2022/11/10 13:53:42;;;;;;;;;;;;;;;7.92;100.00;100851.97;4976546;28;19914;-86
2022/11/10 13:56:17;;;;;;;;;;;;;;;7.98;100.00;100851.03;4994149;28;19922;-87
2022/11/10 13:58:43;;;;;;;;;;;;;;;8.05;100.00;100855.28;4994476;28;19921;-88
2022/11/10 14:01:17;;;;;;;;;;;;;;;8.12;100.00;100843.75;4977284;28;20016;-90
2022/11/10 14:03:46;;;;;;;;;;;;;;;8.15;100.00;100841.06;4994255;28;19918;-85
2022/11/10 14:06:20;;;;;;;;;;;;;;;8.21;100.00;100839.22;4994008;28;20385;-89
2022/11/10 14:08:59;;;;;;;;;;;;;;;8.28;100.00;100831.19;4976714;28;19960;-87
2022/11/10 14:17:21;;;;;;;;;;;;;;;8.37;100.00;100851.25;5973292;23;19921;-85
2022/11/10 14:19:46;;;;;;;;;;;;;;;8.42;100.00;100862.63;4954250;28;19930;-91
2022/11/10 14:22:21;;;;;;;;;;;;;;;8.46;100.00;100861.72;4952887;29;20270;-89
2022/11/10 14:24:58;;;;;;;;;;;;;;;8.49;100.00;100872.22;4954196;29;19920;-91
2022/11/10 14:27:26;;;;;;;;;;;;;;;8.53;100.00;100873.03;4954120;29;20336;-88
2022/11/10 14:30:18;;;;;;;;;;;;;;;8.57;100.00;100866.81;4955543;29;20317;-90
2022/11/10 14:32:45;;;;;;;;;;;;;;;8.61;100.00;100873.78;4953859;29;19926;-90
2022/11/10 14:35:22;;;;;;;;;;;;;;;8.62;100.00;100870.25;4955135;29;19919;-87
2022/11/10 14:37:48;;;;;;;;;;;;;;;8.63;100.00;100874.63;4953725;29;19930;-87
2022/11/10 14:40:16;;;;;;;;;;;;;;;8.66;100.00;100874.59;4954020;29;19923;-91
2022/11/10 14:42:43;;;;;;;;;;;;;;;8.69;100.00;100873.63;4953888;29;20325;-88
2022/11/10 14:45:22;;;;;;;;;;;;;;;8.70;100.00;100870.13;4955211;29;19918;-87
2022/11/10 14:47:52;;;;;;;;;;;;;;;8.73;100.00;100875.34;4953802;29;19962;-87
2022/11/10 14:50:20;;;;;;;;;;;;;;;8.77;100.00;100866.44;4953970;29;20433;-91
2022/11/10 14:52:47;;;;;;;;;;;;;;;8.78;100.00;100868.19;4953828;28;19926;-90
2022/11/10 14:55:17;;;;;;;;;;;;;;;8.84;100.00;100878.66;4955193;29;20358;-87
2022/11/10 14:57:47;;;;;;;;;;;;;;;9.84;100.00;100872.22;4955203;29;20437;-84
2022/11/10 15:01:00;;;;;;;;;;;;;;;8.47;100.00;100874.03;4955299;29;19916;-91
2022/11/10 15:03:36;;;;;;;;;;;;;;;8.02;100.00;100870.31;4975832;23;19933;-89
2022/11/10 15:06:07;;;;;;;;;;;;;;;7.74;100.00;100876.00;4973762;28;19919;-91
2022/11/10 15:08:33;;;;;;;;;;;;;;;7.57;100.00;100885.00;4973551;28;19957;-89
2022/11/10 15:10:58;;;;;;;;;;;;;;;7.48;100.00;100887.75;4972639;28;20400;-89
2022/11/10 15:16:35;;;;;;;;;;;;;;;7.17;100.00;100889.91;4974416;28;19926;-88
2022/11/10 15:19:40;;;;;;;;;;;;;;;7.03;100.00;100887.41;4973009;28;19918;-90
2022/11/10 15:22:11;;;;;;;;;;;;;;;6.99;100.00;100889.19;4972458;28;19957;-89
2022/11/10 15:24:41;;;;;;;;;;;;;;;6.85;100.00;100899.88;4974294;28;20421;-90
2022/11/10 15:27:11;;;;;;;;;;;;;;;6.97;100.00;100895.38;4976483;28;20271;-92
2022/11/10 15:29:49;;;;;;;;;;;;;;;;;;;;;
2022/11/10 15:32:26;;;;;;;;;;;;;;;;;;;;;
2022/11/10 15:34:52;;;;;;;;;;;;;;;6.93;100.00;100901.56;4977501;28;19926;-89
2022/11/10 15:37:30;;;;;;;;;;;;;;;6.84;100.00;100903.38;4975258;28;19981;-92
2022/11/10 15:40:14;;;;;;;;;;;;;;;6.85;100.00;100905.13;4976121;28;19922;-90
2022/11/10 15:42:58;;;;;;;;;;;;;;;6.77;100.00;100900.84;4977248;28;19926;-92
2022/11/10 15:45:28;;;;;;;;;;;;;;;6.72;100.00;100896.47;4980405;23;19937;-94
2022/11/10 15:47:57;;;;;;;;;;;;;;;6.70;100.00;100895.63;4955966;29;19925;-91
2022/11/10 15:50:40;;;;;;;;;;;;;;;6.71;100.00;100902.63;4956572;28;19922;-91
2022/11/10 15:56:13;;;;;;;;;;;;;;;6.65;100.00;100896.56;5014659;23;19926;-89
2022/11/10 15:58:38;;;;;;;;;;;;;;;6.68;100.00;100897.38;4956839;29;19919;-88
2022/11/10 16:01:21;;;;;;;;;;;;;;;6.64;100.00;100902.72;4956290;29;20298;-91
2022/11/10 16:03:54;;;;;;;;;;;;;;;6.62;100.00;100905.38;4957757;29;20005;-95
2022/11/10 16:06:49;;;;;;;;;;;;;;;6.58;100.00;100898.38;4971479;28;19951;-95
2022/11/10 16:09:40;;;;;;;;;;;;;;;6.53;100.00;100897.53;4956774;29;19925;-91
2022/11/10 16:12:10;;;;;;;;;;;;;;;6.53;100.00;100900.19;4956332;29;19918;-89
2022/11/10 16:14:36;;;;;;;;;;;;;;;6.53;100.00;100898.41;4972046;28;19927;-89
2022/11/10 16:17:01;;;;;;;;;;;;;;;6.46;100.00;100898.47;4957203;29;19922;-88
2022/11/10 16:19:28;;;;;;;;;;;;;;;6.40;100.00;100895.88;4958899;29;20405;-91
2022/11/10 16:21:54;;;;;;;;;;;;;;;6.35;100.00;100899.44;4959971;29;19958;-90
2022/11/10 16:24:19;;;;;;;;;;;;;;;6.36;100.00;100902.94;4956034;29;19957;-88
2022/11/10 16:26:44;;;;;;;;;;;;;;;7.48;100.00;100908.84;4956547;29;19969;-85
2022/11/10 16:32:29;;;;;;;;;;;;;;;6.64;100.00;100911.50;4949383;29;19945;-95
2022/11/10 16:34:58;;;;;;;;;;;;;;;6.59;100.00;100913.28;4967819;28;19927;-92
2022/11/10 16:37:23;;;;;;;;;;;;;;;6.55;100.00;100920.31;4968239;28;19929;-88
2022/11/10 16:39:49;;;;;;;;;;;;;;;6.58;100.00;100929.09;4970353;28;20021;-87
2022/11/10 16:42:14;;;;;;;;;;;;;;;6.51;100.00;100930.88;4955289;29;19923;-88
2022/11/10 16:44:45;;;;;;;;;;;;;;;6.59;100.00;100928.19;4958245;29;19918;-90
2022/11/10 16:47:37;;;;;;;;;;;;;;;;;;;;;
2022/11/10 16:50:42;;;;;;;;;;;;;;;6.44;100.00;100929.22;4961179;28;20024;-96
2022/11/10 16:53:34;;;;;;;;;;;;;;;6.41;100.00;100938.00;4935841;28;20381;-89
2022/11/10 16:56:30;;;;;;;;;;;;;;;6.42;100.00;100937.13;4965733;28;20475;-90
2022/11/10 16:58:55;;;;;;;;;;;;;;;6.45;100.00;100936.22;4953870;28;21958;-89
2022/11/10 17:01:41;;;;;;;;;;;;;;;6.51;100.00;100936.16;4956522;29;19923;-89
2022/11/10 17:04:15;;;;;;;;;;;;;;;6.45;100.00;100936.22;4954308;29;19929;-89
2022/11/10 17:06:42;;;;;;;;;;;;;;;6.42;100.00;100944.16;4969976;28;19918;-90
2022/11/10 17:09:16;;;;;;;;;;;;;;;6.38;100.00;100947.69;4954077;29;19923;-88
2022/11/10 17:11:41;;;;;;;;;;;;;;;6.41;100.00;100950.28;4970216;28;19923;-89
2022/11/10 17:14:16;;;;;;;;;;;;;;;6.38;100.00;100952.94;4968586;28;20002;-88
2022/11/10 17:16:43;;;;;;;;;;;;;;;6.36;100.00;100958.22;4954060;29;19922;-89
2022/11/10 17:19:14;;;;;;;;;;;;;;;6.37;100.00;100954.72;4970081;28;19919;-88
2022/11/10 17:21:39;;;;;;;;;;;;;;;6.30;100.00;100953.00;4950415;29;19981;-88
2022/11/10 17:24:26;;;;;;;;;;;;;;;6.32;100.00;100952.09;4936549;29;20362;-86
2022/11/10 17:27:12;;;;;;;;;;;;;;;6.34;100.00;100962.63;4953304;29;20378;-86
2022/11/10 17:30:20;;;;;;;;;;;;;;;;;;;;;
2022/11/10 17:32:58;;;;;;;;;;;;;;;;;;;;;
2022/11/10 17:35:44;;;;;;;;;;;;;;;6.29;100.00;100967.91;4954832;28;19922;-88
2022/11/10 17:38:11;;;;;;;;;;;;;;;6.28;100.00;100966.16;4949224;28;19978;-89
2022/11/10 17:40:42;;;;;;;;;;;;;;;6.30;100.00;100964.41;4968763;28;19922;-93
2022/11/10 17:43:20;;;;;;;;;;;;;;;6.35;100.00;100965.25;4959269;28;19923;-89
2022/11/10 17:46:05;;;;;;;;;;;;;;;6.39;100.00;100966.09;4968414;28;20005;-88
2022/11/10 17:48:48;;;;;;;;;;;;;;;;;;;;;
2022/11/10 17:51:33;;;;;;;;;;;;;;;6.34;100.00;100971.38;4953256;29;19929;-90
2022/11/10 17:59:35;;;;;;;;;;;;;;;6.40;100.00;100969.59;4932708;29;20464;-88
2022/11/10 18:02:01;;;;;;;;;;;;;;;6.36;100.00;100976.66;4947257;29;19922;-88
2022/11/10 18:04:26;;;;;;;;;;;;;;;6.35;100.00;100974.88;4951865;28;20432;-89
2022/11/10 18:06:52;;;;;;;;;;;;;;;6.26;100.00;100983.72;4934156;29;19977;-89
2022/11/10 18:09:19;;;;;;;;;;;;;;;6.26;100.00;100978.47;4951106;29;19938;-87
2022/11/10 18:11:44;;;;;;;;;;;;;;;6.24;100.00;100974.97;4951711;28;20363;-87
2022/11/10 18:14:12;;;;;;;;;;;;;;;6.28;100.00;100976.69;4950662;29;19918;-87
2022/11/10 18:17:00;;;;;;;;;;;;;;;6.28;100.00;100989.84;4950595;29;19919;-87
2022/11/10 18:19:25;;;;;;;;;;;;;;;6.29;100.00;100985.47;4934695;29;20312;-90
2022/11/10 18:21:51;;;;;;;;;;;;;;;6.22;100.00;100978.50;4949061;28;19923;-87
2022/11/10 18:24:16;;;;;;;;;;;;;;;6.20;100.00;100991.66;4934758;29;19919;-87
2022/11/10 18:26:41;;;;;;;;;;;;;;;6.26;100.00;100989.00;4952087;28;19922;-88
2022/11/10 18:29:06;;;;;;;;;;;;;;;6.24;100.00;100985.50;4933119;29;20374;-90
2022/11/10 18:31:32;;;;;;;;;;;;;;;6.25;100.00;100979.34;4949229;29;19954;-91
2022/11/10 18:33:57;;;;;;;;;;;;;;;6.34;100.00;100981.91;4936049;29;19938;-88
2022/11/10 18:36:22;;;;;;;;;;;;;;;6.24;100.00;100980.25;4950242;28;19927;-89
2022/11/10 18:38:47;;;;;;;;;;;;;;;6.25;100.00;100971.44;4949072;28;19947;-88
2022/11/10 18:43:57;;;;;;;;;;;;;;;6.27;100.00;100980.22;4935990;29;19941;-87
2022/11/10 18:46:22;;;;;;;;;;;;;;;6.15;100.00;100980.28;4935401;29;20390;-88
2022/11/10 18:48:47;;;;;;;;;;;;;;;6.11;100.00;100973.28;4951437;29;20017;-90
2022/11/10 18:51:13;;;;;;;;;;;;;;;6.16;100.00;100969.75;4950366;28;20350;-89
2022/11/10 18:53:39;;;;;;;;;;;;;;;6.16;100.00;100972.38;4934359;29;19930;-88
2022/11/10 18:56:24;;;;;;;;;;;;;;;6.17;100.00;100963.63;4948441;29;19923;-85
2022/11/10 18:59:00;;;;;;;;;;;;;;;6.06;100.00;100957.50;4934529;29;20326;-93
2022/11/10 19:01:49;;;;;;;;;;;;;;;6.09;100.00;100959.28;4949918;29;19976;-92
2022/11/10 19:04:15;;;;;;;;;;;;;;;6.05;100.00;100962.78;4920872;29;19923;-87
2022/11/10 19:06:40;;;;;;;;;;;;;;;6.16;100.00;100966.25;4934221;29;19981;-87
2022/11/10 19:09:05;;;;;;;;;;;;;;;6.23;100.00;100975.84;4939589;29;19997;-88
2022/11/10 19:11:32;;;;;;;;;;;;;;;6.24;100.00;100980.25;4939353;29;19955;-88
2022/11/10 19:13:59;;;;;;;;;;;;;;;6.10;100.00;100979.44;4964422;23;19918;-86
2022/11/10 19:16:25;;;;;;;;;;;;;;;6.14;100.00;100982.06;4975819;28;19933;-87
2022/11/10 19:18:53;;;;;;;;;;;;;;;6.21;100.00;100988.16;4977630;28;19981;-91
2022/11/10 19:24:41;;;;;;;;;;;;;;;6.14;100.00;101000.47;4958068;29;20498;-91
2022/11/10 19:32:49;;;;;;;;;;;;;;;6.16;100.00;101008.38;4932455;23;19933;-91
2022/11/10 19:39:25;;;;;;;;;;;;;;;6.09;100.00;101017.16;4880012;29;19923;-94
2022/11/10 19:41:39;;;;;;;;;;;;;;;6.16;100.00;101021.53;4871547;29;19962;-90
2022/11/10 19:44:05;;;;;;;;;;;;;;;6.02;100.00;101025.97;4954644;28;19969;-87
2022/11/10 19:46:35;;;;;;;;;;;;;;;6.02;100.00;101028.63;4956660;28;19923;-87
2022/11/10 19:52:10;;;;;;;;;;;;;;;5.94;100.00;101029.47;4955823;28;19918;-85
2022/11/10 19:54:44;;;;;;;;;;;;;;;5.90;100.00;101024.22;4958582;28;19972;-88
2022/11/10 19:57:09;;;;;;;;;;;;;;;6.00;100.00;101029.47;4955848;28;19958;-89
2022/11/10 19:59:34;;;;;;;;;;;;;;;6.04;100.00;101029.47;4954056;28;19965;-88
2022/11/10 20:02:22;;;;;;;;;;;;;;;5.96;100.00;101033.00;4957695;28;19965;-87
2022/11/10 20:10:20;;;;;;;;;;;;;;;5.95;100.00;101023.34;4953314;28;20294;-90
2022/11/10 20:12:46;;;;;;;;;;;;;;;5.99;100.00;101027.72;4950671;28;20425;-88
2022/11/10 20:15:11;;;;;;;;;;;;;;;5.94;100.00;101029.47;4937176;29;20013;-89
2022/11/10 20:17:36;;;;;;;;;;;;;;;5.98;100.00;101026.00;4943471;29;20017;-87
2022/11/10 20:20:02;;;;;;;;;;;;;;;5.97;100.00;101029.50;4954324;29;20262;-89
2022/11/10 20:25:35;;;;;;;;;;;;;;;5.85;100.00;101031.25;4961535;23;19934;-91
2022/11/10 20:28:04;;;;;;;;;;;;;;;5.87;100.00;101033.03;4950724;28;20009;-89
2022/11/10 20:30:30;;;;;;;;;;;;;;;5.86;100.00;101036.53;4955938;29;19919;-90
2022/11/10 20:32:56;;;;;;;;;;;;;;;5.91;100.00;101037.38;4956990;28;19958;-87
2022/11/10 20:35:21;;;;;;;;;;;;;;;5.99;100.00;101047.91;4953342;28;20040;-85
2022/11/10 20:37:54;;;;;;;;;;;;;;;6.01;100.00;101051.41;4949719;28;19930;-89
2022/11/10 20:40:19;;;;;;;;;;;;;;;5.93;100.00;101058.41;4936417;29;19919;-87
2022/11/10 20:42:44;;;;;;;;;;;;;;;5.85;100.00;101057.56;4937489;29;19919;-85
2022/11/10 20:45:10;;;;;;;;;;;;;;;5.88;100.00;101054.94;4947274;28;19965;-86
2022/11/10 20:47:41;;;;;;;;;;;;;;;5.88;100.00;101055.78;4953307;28;19929;-91
2022/11/10 20:50:06;;;;;;;;;;;;;;;5.89;100.00;101062.81;4955634;28;19923;-86
2022/11/10 20:52:32;;;;;;;;;;;;;;;5.86;100.00;101062.81;4953545;28;20377;-89
2022/11/10 20:55:00;;;;;;;;;;;;;;;5.83;100.00;101058.44;4956653;28;19969;-86
2022/11/10 20:57:25;;;;;;;;;;;;;;;5.83;100.00;101061.06;4950939;28;19946;-86
2022/11/10 20:59:53;;;;;;;;;;;;;;;5.81;100.00;101061.97;4945360;29;20370;-85